createdAt,value
2018-07-31T00:00:49.357Z,1006.46
2018-07-31T00:01:49.350Z,1006.4
2018-07-31T00:02:49.345Z,1006.41
2018-07-31T00:03:49.337Z,1006.4
2018-07-31T00:04:49.330Z,1006.44
2018-07-31T00:05:49.324Z,1006.42
2018-07-31T00:06:49.315Z,1006.41
2018-07-31T00:07:49.306Z,1006.41
2018-07-31T00:08:49.301Z,1006.4
2018-07-31T00:09:49.293Z,1006.39
2018-07-31T00:10:49.285Z,1006.42
2018-07-31T00:11:49.280Z,1006.42
2018-07-31T00:12:49.274Z,1006.37
2018-07-31T00:13:49.265Z,1006.4
2018-07-31T00:14:49.261Z,1006.39
2018-07-31T00:15:49.248Z,1006.38
2018-07-31T00:16:49.243Z,1006.42
2018-07-31T00:17:49.234Z,1006.39
2018-07-31T00:18:49.227Z,1006.4
2018-07-31T00:19:49.425Z,1006.41
2018-07-31T00:20:49.212Z,1006.45
2018-07-31T00:21:49.204Z,1006.4
2018-07-31T00:22:49.198Z,1006.47
2018-07-31T00:23:49.191Z,1006.45
2018-07-31T00:24:49.182Z,1006.46
2018-07-31T00:25:49.174Z,1006.45
2018-07-31T00:26:49.172Z,1006.44
2018-07-31T00:27:49.160Z,1006.45
2018-07-31T00:28:49.152Z,1006.43
2018-07-31T00:29:49.149Z,1006.44
2018-07-31T00:30:49.141Z,1006.41
2018-07-31T00:31:49.132Z,1006.41
2018-07-31T00:32:49.122Z,1006.44
2018-07-31T00:33:49.117Z,1006.41
2018-07-31T00:34:49.107Z,1006.42
2018-07-31T00:35:49.100Z,1006.4
2018-07-31T00:36:49.096Z,1006.41
2018-07-31T00:37:49.085Z,1006.42
2018-07-31T00:38:49.087Z,1006.42
2018-07-31T00:39:49.070Z,1006.43
2018-07-31T00:40:49.062Z,1006.39
2018-07-31T00:41:49.057Z,1006.43
2018-07-31T00:42:49.051Z,1006.51
2018-07-31T00:43:49.041Z,1006.52
2018-07-31T00:44:49.033Z,1006.4
2018-07-31T00:45:49.058Z,1006.42
2018-07-31T00:46:49.019Z,1006.38
2018-07-31T00:47:49.013Z,1006.42
2018-07-31T00:48:49.003Z,1006.42
2018-07-31T00:49:49.000Z,1006.46
2018-07-31T00:50:48.991Z,1006.43
2018-07-31T00:51:48.980Z,1006.44
2018-07-31T00:52:48.973Z,1006.37
2018-07-31T00:53:48.963Z,1006.39
2018-07-31T00:54:48.956Z,1006.39
2018-07-31T00:55:48.949Z,1006.38
2018-07-31T00:56:48.942Z,1006.46
2018-07-31T00:57:48.933Z,1006.5
2018-07-31T00:58:48.926Z,1006.53
2018-07-31T00:59:48.917Z,1006.52
2018-07-31T01:00:48.910Z,1006.49
2018-07-31T01:01:48.902Z,1006.46
2018-07-31T01:02:48.898Z,1006.47
2018-07-31T01:03:48.890Z,1006.38
2018-07-31T01:04:48.891Z,1006.39
2018-07-31T01:05:48.872Z,1006.44
2018-07-31T01:06:48.872Z,1006.44
2018-07-31T01:07:48.856Z,1006.45
2018-07-31T01:08:48.848Z,1006.42
2018-07-31T01:09:48.842Z,1006.36
2018-07-31T01:10:48.846Z,1006.34
2018-07-31T01:11:48.824Z,1006.36
2018-07-31T01:12:48.821Z,1006.4
2018-07-31T01:13:48.812Z,1006.4
2018-07-31T01:14:48.801Z,1006.38
2018-07-31T01:15:48.793Z,1006.3
2018-07-31T01:16:48.787Z,1006.23
2018-07-31T01:17:48.777Z,1006.25
2018-07-31T01:18:48.771Z,1006.3
2018-07-31T01:19:48.761Z,1006.32
2018-07-31T01:20:48.754Z,1006.3
2018-07-31T01:21:48.747Z,1006.29
2018-07-31T01:22:48.738Z,1006.27
2018-07-31T01:23:48.732Z,1006.23
2018-07-31T01:24:48.721Z,1006.2
2018-07-31T01:25:48.718Z,1006.19
2018-07-31T01:26:48.708Z,1006.2
2018-07-31T01:27:48.697Z,1006.2
2018-07-31T01:28:48.691Z,1006.28
2018-07-31T01:29:48.683Z,1006.29
2018-07-31T01:30:48.674Z,1006.23
2018-07-31T01:31:48.668Z,1006.25
2018-07-31T01:32:48.663Z,1006.17
2018-07-31T01:33:48.651Z,1006.2
2018-07-31T01:34:48.644Z,1006.2
2018-07-31T01:35:48.638Z,1006.28
2018-07-31T01:36:48.630Z,1006.31
2018-07-31T01:37:48.620Z,1006.33
2018-07-31T01:38:48.615Z,1006.27
2018-07-31T01:39:48.606Z,1006.25
2018-07-31T01:40:48.599Z,1006.24
2018-07-31T01:41:48.590Z,1006.17
2018-07-31T01:42:48.580Z,1006.19
2018-07-31T01:43:48.574Z,1006.2
2018-07-31T01:44:48.563Z,1006.19
2018-07-31T01:45:48.617Z,1006.19
2018-07-31T01:46:48.548Z,1006.18
2018-07-31T01:47:48.548Z,1006.15
2018-07-31T01:48:48.534Z,1006.15
2018-07-31T01:49:48.529Z,1006.18
2018-07-31T01:50:48.516Z,1006.12
2018-07-31T01:51:48.521Z,1006.14
2018-07-31T01:52:48.499Z,1006.17
2018-07-31T01:53:48.502Z,1006.17
2018-07-31T01:54:48.483Z,1006.18
2018-07-31T01:55:48.493Z,1006.21
2018-07-31T01:56:48.466Z,1006.23
2018-07-31T01:57:48.483Z,1006.21
2018-07-31T01:58:48.451Z,1006.19
2018-07-31T01:59:48.442Z,1006.23
2018-07-31T02:00:48.433Z,1006.26
2018-07-31T02:01:48.429Z,1006.21
2018-07-31T02:02:48.418Z,1006.23
2018-07-31T02:03:48.420Z,1006.2
2018-07-31T02:04:48.402Z,1006.21
2018-07-31T02:05:48.420Z,1006.2
2018-07-31T02:06:48.387Z,1006.25
2018-07-31T02:07:48.387Z,1006.22
2018-07-31T02:08:48.370Z,1006.26
2018-07-31T02:09:48.386Z,1006.26
2018-07-31T02:10:48.357Z,1006.26
2018-07-31T02:11:48.343Z,1006.25
2018-07-31T02:12:48.337Z,1006.26
2018-07-31T02:13:48.328Z,1006.24
2018-07-31T02:14:48.320Z,1006.22
2018-07-31T02:15:48.310Z,1006.23
2018-07-31T02:16:48.303Z,1006.26
2018-07-31T02:17:48.294Z,1006.26
2018-07-31T02:18:48.285Z,1006.28
2018-07-31T02:19:48.487Z,1006.27
2018-07-31T02:20:48.269Z,1006.24
2018-07-31T02:21:48.260Z,1006.24
2018-07-31T02:22:48.257Z,1006.22
2018-07-31T02:23:48.248Z,1006.25
2018-07-31T02:24:48.236Z,1006.24
2018-07-31T02:25:48.227Z,1006.23
2018-07-31T02:26:48.218Z,1006.23
2018-07-31T02:27:48.208Z,1006.24
2018-07-31T02:28:48.206Z,1006.25
2018-07-31T02:29:48.193Z,1006.25
2018-07-31T02:30:48.184Z,1006.26
2018-07-31T02:31:48.177Z,1006.23
2018-07-31T02:32:48.168Z,1006.22
2018-07-31T02:33:48.172Z,1006.2
2018-07-31T02:34:48.149Z,1006.19
2018-07-31T02:35:48.144Z,1006.19
2018-07-31T02:36:48.135Z,1006.23
2018-07-31T02:37:48.152Z,1006.19
2018-07-31T02:38:48.117Z,1006.19
2018-07-31T02:39:48.109Z,1006.19
2018-07-31T02:40:48.100Z,1006.17
2018-07-31T02:41:48.093Z,1006.17
2018-07-31T02:42:48.085Z,1006.18
2018-07-31T02:43:48.076Z,1006.23
2018-07-31T02:44:48.070Z,1006.22
2018-07-31T02:45:48.058Z,1006.23
2018-07-31T02:46:48.078Z,1006.19
2018-07-31T02:47:48.043Z,1006.23
2018-07-31T02:48:48.034Z,1006.21
2018-07-31T02:49:48.023Z,1006.23
2018-07-31T02:50:48.016Z,1006.24
2018-07-31T02:51:48.007Z,1006.27
2018-07-31T02:52:48.003Z,1006.27
2018-07-31T02:53:47.989Z,1006.31
2018-07-31T02:54:47.981Z,1006.31
2018-07-31T02:55:47.970Z,1006.28
2018-07-31T02:56:47.964Z,1006.3
2018-07-31T02:57:47.956Z,1006.3
2018-07-31T02:58:47.946Z,1006.35
2018-07-31T02:59:47.939Z,1006.37
2018-07-31T03:00:47.932Z,1006.36
2018-07-31T03:01:47.925Z,1006.37
2018-07-31T03:02:47.912Z,1006.37
2018-07-31T03:03:47.904Z,1006.39
2018-07-31T03:04:47.897Z,1006.35
2018-07-31T03:05:47.886Z,1006.44
2018-07-31T03:06:47.879Z,1006.42
2018-07-31T03:07:47.870Z,1006.4
2018-07-31T03:08:47.860Z,1006.44
2018-07-31T03:09:47.852Z,1006.45
2018-07-31T03:10:47.844Z,1006.45
2018-07-31T03:11:47.841Z,1006.43
2018-07-31T03:12:47.826Z,1006.44
2018-07-31T03:13:47.819Z,1006.46
2018-07-31T03:14:47.812Z,1006.44
2018-07-31T03:15:47.801Z,1006.45
2018-07-31T03:16:47.793Z,1006.46
2018-07-31T03:17:47.788Z,1006.5
2018-07-31T03:18:47.779Z,1006.49
2018-07-31T03:19:47.765Z,1006.46
2018-07-31T03:20:47.760Z,1006.48
2018-07-31T03:21:47.748Z,1006.44
2018-07-31T03:22:47.748Z,1006.43
2018-07-31T03:23:47.735Z,1006.43
2018-07-31T03:24:47.721Z,1006.45
2018-07-31T03:25:47.714Z,1006.46
2018-07-31T03:26:47.708Z,1006.49
2018-07-31T03:27:47.699Z,1006.49
2018-07-31T03:28:47.686Z,1006.49
2018-07-31T03:29:47.984Z,1006.47
2018-07-31T03:30:47.672Z,1006.55
2018-07-31T03:31:47.665Z,1006.51
2018-07-31T03:32:47.660Z,1006.52
2018-07-31T03:33:47.647Z,1006.52
2018-07-31T03:34:47.635Z,1006.54
2018-07-31T03:35:47.629Z,1006.51
2018-07-31T03:36:47.620Z,1006.55
2018-07-31T03:37:47.613Z,1006.56
2018-07-31T03:38:47.598Z,1006.55
2018-07-31T03:39:47.589Z,1006.5
2018-07-31T03:40:47.582Z,1006.49
2018-07-31T03:41:47.572Z,1006.51
2018-07-31T03:42:47.565Z,1006.5
2018-07-31T03:43:47.554Z,1006.51
2018-07-31T03:44:47.545Z,1006.46
2018-07-31T03:45:47.537Z,1006.51
2018-07-31T03:46:47.528Z,1006.52
2018-07-31T03:47:47.520Z,1006.5
2018-07-31T03:48:47.512Z,1006.5
2018-07-31T03:49:47.502Z,1006.5
2018-07-31T03:50:47.493Z,1006.52
2018-07-31T03:51:47.484Z,1006.49
2018-07-31T03:52:47.476Z,1006.54
2018-07-31T03:53:47.465Z,1006.54
2018-07-31T03:54:47.463Z,1006.5
2018-07-31T03:55:47.449Z,1006.49
2018-07-31T03:56:47.442Z,1006.52
2018-07-31T03:57:47.429Z,1006.5
2018-07-31T03:58:47.423Z,1006.53
2018-07-31T03:59:47.414Z,1006.53
2018-07-31T04:00:47.404Z,1006.56
2018-07-31T04:01:47.397Z,1006.56
2018-07-31T04:02:47.386Z,1006.56
2018-07-31T04:03:47.376Z,1006.56
2018-07-31T04:04:47.367Z,1006.6
2018-07-31T04:05:47.358Z,1006.6
2018-07-31T04:06:47.349Z,1006.59
2018-07-31T04:07:47.340Z,1006.58
2018-07-31T04:08:47.332Z,1006.62
2018-07-31T04:09:47.323Z,1006.63
2018-07-31T04:10:47.314Z,1006.62
2018-07-31T04:11:47.305Z,1006.6
2018-07-31T04:12:47.294Z,1006.63
2018-07-31T04:13:47.287Z,1006.66
2018-07-31T04:14:47.278Z,1006.64
2018-07-31T04:15:47.268Z,1006.7
2018-07-31T04:16:47.312Z,1006.64
2018-07-31T04:17:47.251Z,1006.67
2018-07-31T04:18:47.242Z,1006.68
2018-07-31T04:19:47.434Z,1006.67
2018-07-31T04:20:47.224Z,1006.7
2018-07-31T04:21:47.215Z,1006.66
2018-07-31T04:22:47.207Z,1006.71
2018-07-31T04:23:47.195Z,1006.73
2018-07-31T04:24:47.186Z,1006.74
2018-07-31T04:25:47.178Z,1006.76
2018-07-31T04:26:47.169Z,1006.81
2018-07-31T04:27:47.163Z,1006.81
2018-07-31T04:28:47.151Z,1006.8
2018-07-31T04:29:47.145Z,1006.78
2018-07-31T04:30:47.137Z,1006.75
2018-07-31T04:31:47.131Z,1006.68
2018-07-31T04:32:47.117Z,1006.7
2018-07-31T04:33:47.107Z,1006.7
2018-07-31T04:34:47.098Z,1006.74
2018-07-31T04:35:47.103Z,1006.69
2018-07-31T04:36:47.083Z,1006.72
2018-07-31T04:37:47.071Z,1006.71
2018-07-31T04:38:47.062Z,1006.71
2018-07-31T04:39:47.055Z,1006.67
2018-07-31T04:40:47.044Z,1006.71
2018-07-31T04:41:47.035Z,1006.69
2018-07-31T04:42:47.042Z,1006.73
2018-07-31T04:43:47.018Z,1006.71
2018-07-31T04:44:47.008Z,1006.7
2018-07-31T04:45:46.999Z,1006.68
2018-07-31T04:46:46.989Z,1006.73
2018-07-31T04:47:46.982Z,1006.73
2018-07-31T04:48:46.973Z,1006.74
2018-07-31T04:49:46.965Z,1006.8
2018-07-31T04:50:46.963Z,1006.81
2018-07-31T04:51:46.947Z,1006.83
2018-07-31T04:52:46.937Z,1006.87
2018-07-31T04:53:46.930Z,1006.89
2018-07-31T04:54:46.921Z,1006.9
2018-07-31T04:55:46.909Z,1006.9
2018-07-31T04:56:46.957Z,1006.91
2018-07-31T04:57:46.895Z,1006.94
2018-07-31T04:58:46.885Z,1006.92
2018-07-31T04:59:46.876Z,1006.96
2018-07-31T05:00:46.868Z,1006.95
2018-07-31T05:01:46.862Z,1006.91
2018-07-31T05:02:46.849Z,1006.96
2018-07-31T05:03:46.841Z,1006.97
2018-07-31T05:04:46.831Z,1006.94
2018-07-31T05:05:46.823Z,1006.93
2018-07-31T05:06:46.812Z,1006.88
2018-07-31T05:07:46.802Z,1006.94
2018-07-31T05:08:46.798Z,1006.91
2018-07-31T05:09:46.786Z,1006.92
2018-07-31T05:10:46.778Z,1006.91
2018-07-31T05:11:46.770Z,1006.91
2018-07-31T05:12:46.760Z,1006.91
2018-07-31T05:13:46.750Z,1006.9
2018-07-31T05:14:46.741Z,1006.87
2018-07-31T05:15:46.736Z,1006.89
2018-07-31T05:16:46.725Z,1006.84
2018-07-31T05:17:46.715Z,1006.79
2018-07-31T05:18:46.709Z,1006.78
2018-07-31T05:19:46.697Z,1006.77
2018-07-31T05:20:46.691Z,1006.78
2018-07-31T05:21:46.679Z,1006.75
2018-07-31T05:22:46.673Z,1006.78
2018-07-31T05:23:46.664Z,1006.81
2018-07-31T05:24:46.653Z,1006.79
2018-07-31T05:25:46.645Z,1006.83
2018-07-31T05:26:46.641Z,1006.84
2018-07-31T05:27:46.632Z,1006.83
2018-07-31T05:28:46.623Z,1006.84
2018-07-31T05:29:46.612Z,1006.86
2018-07-31T05:30:46.602Z,1006.81
2018-07-31T05:31:46.599Z,1006.81
2018-07-31T05:32:46.636Z,1006.85
2018-07-31T05:33:46.583Z,1006.83
2018-07-31T05:34:46.567Z,1006.85
2018-07-31T05:35:46.565Z,1006.85
2018-07-31T05:36:46.550Z,1006.83
2018-07-31T05:37:46.543Z,1006.86
2018-07-31T05:38:46.535Z,1006.87
2018-07-31T05:39:46.523Z,1006.89
2018-07-31T05:40:46.519Z,1006.89
2018-07-31T05:41:46.509Z,1006.87
2018-07-31T05:42:46.498Z,1006.91
2018-07-31T05:43:46.490Z,1006.93
2018-07-31T05:44:46.481Z,1006.95
2018-07-31T05:45:46.474Z,1006.99
2018-07-31T05:46:46.470Z,1006.98
2018-07-31T05:47:46.458Z,1007.02
2018-07-31T05:48:46.447Z,1007.02
2018-07-31T05:49:46.440Z,1007.04
2018-07-31T05:50:46.430Z,1007.07
2018-07-31T05:51:46.468Z,1007.07
2018-07-31T05:52:46.415Z,1007.1
2018-07-31T05:53:46.405Z,1007.1
2018-07-31T05:54:46.398Z,1007.09
2018-07-31T05:55:46.404Z,1007.11
2018-07-31T05:56:46.381Z,1007.1
2018-07-31T05:57:46.373Z,1007.07
2018-07-31T05:58:46.364Z,1007.13
2018-07-31T05:59:46.356Z,1007.08
2018-07-31T06:00:46.347Z,1007.1
2018-07-31T06:01:46.340Z,1007.08
2018-07-31T06:02:46.329Z,1007.09
2018-07-31T06:03:46.325Z,1007.09
2018-07-31T06:04:46.314Z,1007.07
2018-07-31T06:05:46.304Z,1007.1
2018-07-31T06:06:46.298Z,1007.08
2018-07-31T06:07:46.288Z,1007.12
2018-07-31T06:08:46.279Z,1007.12
2018-07-31T06:09:46.272Z,1007.13
2018-07-31T06:10:46.263Z,1007.13
2018-07-31T06:11:46.255Z,1007.15
2018-07-31T06:12:46.247Z,1007.14
2018-07-31T06:13:46.241Z,1007.15
2018-07-31T06:14:46.230Z,1007.15
2018-07-31T06:15:46.220Z,1007.12
2018-07-31T06:16:46.214Z,1007.07
2018-07-31T06:17:46.205Z,1007.07
2018-07-31T06:18:46.201Z,1007.08
2018-07-31T06:19:46.402Z,1007.08
2018-07-31T06:20:46.181Z,1007.15
2018-07-31T06:21:46.175Z,1007.16
2018-07-31T06:22:46.167Z,1007.15
2018-07-31T06:23:46.158Z,1007.18
2018-07-31T06:24:46.161Z,1007.2
2018-07-31T06:25:46.143Z,1007.19
2018-07-31T06:26:46.138Z,1007.19
2018-07-31T06:27:46.128Z,1007.18
2018-07-31T06:28:46.120Z,1007.17
2018-07-31T06:29:46.111Z,1007.18
2018-07-31T06:30:46.101Z,1007.21
2018-07-31T06:31:46.095Z,1007.25
2018-07-31T06:32:46.138Z,1007.23
2018-07-31T06:33:46.082Z,1007.23
2018-07-31T06:34:46.070Z,1007.27
2018-07-31T06:35:46.060Z,1007.27
2018-07-31T06:36:46.054Z,1007.26
2018-07-31T06:37:46.048Z,1007.32
2018-07-31T06:38:46.041Z,1007.33
2018-07-31T06:39:46.030Z,1007.35
2018-07-31T06:40:46.023Z,1007.35
2018-07-31T06:41:46.015Z,1007.37
2018-07-31T06:42:46.008Z,1007.39
2018-07-31T06:43:45.999Z,1007.38
2018-07-31T06:44:45.992Z,1007.36
2018-07-31T06:45:45.984Z,1007.39
2018-07-31T06:46:45.982Z,1007.41
2018-07-31T06:47:45.969Z,1007.41
2018-07-31T06:48:45.965Z,1007.43
2018-07-31T06:49:45.953Z,1007.47
2018-07-31T06:50:45.951Z,1007.48
2018-07-31T06:51:45.941Z,1007.44
2018-07-31T06:52:45.934Z,1007.49
2018-07-31T06:53:45.928Z,1007.46
2018-07-31T06:54:45.919Z,1007.44
2018-07-31T06:55:45.916Z,1007.45
2018-07-31T06:56:46.002Z,1007.45
2018-07-31T06:57:45.898Z,1007.46
2018-07-31T06:58:45.892Z,1007.47
2018-07-31T06:59:45.884Z,1007.53
2018-07-31T07:00:45.879Z,1007.47
2018-07-31T07:01:45.871Z,1007.46
2018-07-31T07:02:45.866Z,1007.47
2018-07-31T07:03:45.858Z,1007.49
2018-07-31T07:04:45.859Z,1007.48
2018-07-31T07:05:45.844Z,1007.49
2018-07-31T07:06:45.838Z,1007.5
2018-07-31T07:07:45.832Z,1007.46
2018-07-31T07:08:45.825Z,1007.43
2018-07-31T07:09:45.820Z,1007.45
2018-07-31T07:10:45.811Z,1007.48
2018-07-31T07:11:45.807Z,1007.48
2018-07-31T07:12:45.807Z,1007.49
2018-07-31T07:13:45.794Z,1007.49
2018-07-31T07:14:45.789Z,1007.47
2018-07-31T07:15:45.783Z,1007.48
2018-07-31T07:16:45.778Z,1007.51
2018-07-31T07:17:45.773Z,1007.51
2018-07-31T07:18:45.764Z,1007.52
2018-07-31T07:19:45.759Z,1007.49
2018-07-31T07:20:45.753Z,1007.49
2018-07-31T07:21:45.785Z,1007.45
2018-07-31T07:22:45.742Z,1007.47
2018-07-31T07:23:45.736Z,1007.42
2018-07-31T07:24:45.731Z,1007.45
2018-07-31T07:25:45.723Z,1007.46
2018-07-31T07:26:45.718Z,1007.48
2018-07-31T07:27:45.714Z,1007.52
2018-07-31T07:28:45.708Z,1007.52
2018-07-31T07:29:45.701Z,1007.55
2018-07-31T07:30:45.701Z,1007.56
2018-07-31T07:31:45.691Z,1007.54
2018-07-31T07:32:45.684Z,1007.55
2018-07-31T07:33:45.773Z,1007.54
2018-07-31T07:34:45.675Z,1007.57
2018-07-31T07:35:45.669Z,1007.77
2018-07-31T07:36:45.699Z,1007.82
2018-07-31T07:37:45.659Z,1007.72
2018-07-31T07:38:45.659Z,1007.7
2018-07-31T07:39:45.647Z,1007.6
2018-07-31T07:40:45.644Z,1007.63
2018-07-31T07:41:45.641Z,1007.68
2018-07-31T07:42:45.635Z,1007.61
2018-07-31T07:43:45.629Z,1007.67
2018-07-31T07:44:45.626Z,1007.58
2018-07-31T07:45:45.622Z,1007.58
2018-07-31T07:46:45.618Z,1007.6
2018-07-31T07:47:45.613Z,1007.6
2018-07-31T07:48:45.609Z,1007.55
2018-07-31T07:49:45.606Z,1007.54
2018-07-31T07:50:45.602Z,1007.53
2018-07-31T07:51:45.597Z,1007.53
2018-07-31T07:52:45.593Z,1007.53
2018-07-31T07:53:45.597Z,1007.55
2018-07-31T07:54:45.587Z,1007.58
2018-07-31T07:55:45.584Z,1007.63
2018-07-31T07:56:45.581Z,1007.68
2018-07-31T07:57:45.586Z,1007.79
2018-07-31T07:58:45.580Z,1007.85
2018-07-31T07:59:45.573Z,1007.86
2018-07-31T08:00:45.571Z,1007.84
2018-07-31T08:01:45.568Z,1007.81
2018-07-31T08:02:45.564Z,1007.69
2018-07-31T08:03:45.623Z,1007.7
2018-07-31T08:04:45.564Z,1007.73
2018-07-31T08:05:45.560Z,1007.74
2018-07-31T08:06:45.558Z,1007.82
2018-07-31T08:07:45.557Z,1007.86
2018-07-31T08:08:45.555Z,1007.98
2018-07-31T08:09:45.608Z,1007.84
2018-07-31T08:10:45.554Z,1007.78
2018-07-31T08:11:45.553Z,1007.82
2018-07-31T08:12:45.551Z,1007.72
2018-07-31T08:13:45.551Z,1007.77
2018-07-31T08:14:45.552Z,1007.86
2018-07-31T08:15:45.552Z,1007.83
2018-07-31T08:16:45.550Z,1007.79
2018-07-31T08:17:45.547Z,1007.77
2018-07-31T08:18:45.546Z,1007.74
2018-07-31T08:19:45.746Z,1007.7
2018-07-31T08:20:45.545Z,1007.75
2018-07-31T08:21:45.544Z,1007.63
2018-07-31T08:22:45.543Z,1007.63
2018-07-31T08:23:45.540Z,1007.7
2018-07-31T08:24:45.541Z,1007.63
2018-07-31T08:25:45.540Z,1007.62
2018-07-31T08:26:45.537Z,1007.67
2018-07-31T08:27:45.560Z,1007.7
2018-07-31T08:28:45.535Z,1007.71
2018-07-31T08:29:45.541Z,1007.73
2018-07-31T08:30:45.532Z,1007.81
2018-07-31T08:31:45.532Z,1007.81
2018-07-31T08:32:45.530Z,1007.78
2018-07-31T08:33:45.528Z,1007.71
2018-07-31T08:34:45.524Z,1007.77
2018-07-31T08:35:45.523Z,1007.72
2018-07-31T08:36:45.522Z,1007.69
2018-07-31T08:37:45.522Z,1007.69
2018-07-31T08:38:45.521Z,1007.71
2018-07-31T08:39:45.517Z,1007.64
2018-07-31T08:40:45.520Z,1007.65
2018-07-31T08:41:45.514Z,1007.62
2018-07-31T08:42:45.512Z,1007.62
2018-07-31T08:43:45.511Z,1007.67
2018-07-31T08:44:45.510Z,1007.63
2018-07-31T08:45:45.505Z,1007.55
2018-07-31T08:46:45.508Z,1007.55
2018-07-31T08:47:45.504Z,1007.49
2018-07-31T08:48:45.502Z,1007.51
2018-07-31T08:49:45.499Z,1007.49
2018-07-31T08:50:45.496Z,1007.44
2018-07-31T08:51:45.498Z,1007.43
2018-07-31T08:52:45.493Z,1007.45
2018-07-31T08:53:45.491Z,1007.55
2018-07-31T08:54:45.487Z,1007.54
2018-07-31T08:55:45.544Z,1007.62
2018-07-31T08:56:45.482Z,1007.63
2018-07-31T08:57:45.480Z,1007.65
2018-07-31T08:58:45.476Z,1007.62
2018-07-31T08:59:45.474Z,1007.67
2018-07-31T09:00:45.469Z,1007.68
2018-07-31T09:01:45.469Z,1007.71
2018-07-31T09:02:45.492Z,1007.64
2018-07-31T09:03:45.460Z,1007.67
2018-07-31T09:04:45.459Z,1007.71
2018-07-31T09:05:45.460Z,1007.68
2018-07-31T09:06:45.452Z,1007.75
2018-07-31T09:07:45.452Z,1007.76
2018-07-31T09:08:45.464Z,1007.74
2018-07-31T09:09:45.443Z,1007.74
2018-07-31T09:10:45.442Z,1007.73
2018-07-31T09:11:45.439Z,1007.77
2018-07-31T09:12:45.434Z,1007.78
2018-07-31T09:13:45.435Z,1007.77
2018-07-31T09:14:45.430Z,1007.73
2018-07-31T09:15:45.426Z,1007.72
2018-07-31T09:16:45.425Z,1007.73
2018-07-31T09:17:45.426Z,1007.82
2018-07-31T09:18:45.422Z,1007.73
2018-07-31T09:19:45.416Z,1007.7
2018-07-31T09:20:45.416Z,1007.66
2018-07-31T09:21:45.412Z,1007.69
2018-07-31T09:22:45.412Z,1007.71
2018-07-31T09:23:45.411Z,1007.85
2018-07-31T09:24:45.432Z,1007.89
2018-07-31T09:25:45.409Z,1007.75
2018-07-31T09:26:45.398Z,1007.67
2018-07-31T09:27:45.398Z,1007.63
2018-07-31T09:28:45.396Z,1007.61
2018-07-31T09:29:45.397Z,1007.59
2018-07-31T09:30:45.451Z,1007.64
2018-07-31T09:31:45.391Z,1007.62
2018-07-31T09:32:45.390Z,1007.61
2018-07-31T09:33:45.388Z,1007.71
2018-07-31T09:34:45.387Z,1007.74
2018-07-31T09:35:45.386Z,1007.74
2018-07-31T09:36:45.384Z,1007.78
2018-07-31T09:37:45.384Z,1007.75
2018-07-31T09:38:45.382Z,1007.76
2018-07-31T09:39:45.380Z,1007.71
2018-07-31T09:40:45.376Z,1007.68
2018-07-31T09:41:45.374Z,1007.69
2018-07-31T09:42:45.461Z,1007.69
2018-07-31T09:43:45.371Z,1007.71
2018-07-31T09:44:45.369Z,1007.72
2018-07-31T09:45:45.369Z,1007.72
2018-07-31T09:46:45.366Z,1007.73
2018-07-31T09:47:45.362Z,1007.69
2018-07-31T09:48:45.362Z,1007.71
2018-07-31T09:49:45.360Z,1007.75
2018-07-31T09:50:45.357Z,1007.81
2018-07-31T09:51:45.355Z,1007.76
2018-07-31T09:52:45.352Z,1007.79
2018-07-31T09:53:45.352Z,1007.8
2018-07-31T09:54:45.347Z,1007.77
2018-07-31T09:55:45.347Z,1007.8
2018-07-31T09:56:45.345Z,1007.8
2018-07-31T09:57:45.344Z,1007.83
2018-07-31T09:58:45.337Z,1007.8
2018-07-31T09:59:45.336Z,1007.81
2018-07-31T10:00:45.334Z,1007.83
2018-07-31T10:01:45.331Z,1007.79
2018-07-31T10:02:45.328Z,1007.85
2018-07-31T10:03:45.326Z,1007.78
2018-07-31T10:04:45.323Z,1007.76
2018-07-31T10:05:45.320Z,1007.73
2018-07-31T10:06:45.318Z,1007.7
2018-07-31T10:07:45.317Z,1007.73
2018-07-31T10:08:45.317Z,1007.72
2018-07-31T10:09:45.312Z,1007.71
2018-07-31T10:10:45.308Z,1007.75
2018-07-31T10:11:45.318Z,1007.82
2018-07-31T10:12:45.305Z,1007.83
2018-07-31T10:13:45.303Z,1007.86
2018-07-31T10:14:45.298Z,1007.87
2018-07-31T10:15:45.297Z,1007.87
2018-07-31T10:16:45.292Z,1007.89
2018-07-31T10:17:45.387Z,1007.89
2018-07-31T10:18:45.289Z,1007.86
2018-07-31T10:19:45.289Z,1007.9
2018-07-31T10:20:45.285Z,1007.91
2018-07-31T10:21:45.283Z,1007.88
2018-07-31T10:22:45.281Z,1007.91
2018-07-31T10:23:45.280Z,1007.92
2018-07-31T10:24:45.280Z,1007.92
2018-07-31T10:25:45.279Z,1007.89
2018-07-31T10:26:45.275Z,1007.86
2018-07-31T10:27:45.276Z,1007.82
2018-07-31T10:28:45.272Z,1007.83
2018-07-31T10:29:45.269Z,1007.86
2018-07-31T10:30:45.349Z,1007.91
2018-07-31T10:31:45.265Z,1007.98
2018-07-31T10:32:45.263Z,1007.95
2018-07-31T10:33:45.267Z,1008.14
2018-07-31T10:34:45.260Z,1007.97
2018-07-31T10:35:45.260Z,1007.99
2018-07-31T10:36:45.259Z,1008.05
2018-07-31T10:37:45.272Z,1008.07
2018-07-31T10:38:45.259Z,1008.13
2018-07-31T10:39:45.259Z,1008.11
2018-07-31T10:40:45.259Z,1008.05
2018-07-31T10:41:45.261Z,1008.06
2018-07-31T10:42:45.261Z,1007.99
2018-07-31T10:43:45.270Z,1007.86
2018-07-31T10:44:45.267Z,1007.82
2018-07-31T10:45:45.266Z,1007.83
2018-07-31T10:46:45.268Z,1007.9
2018-07-31T10:47:45.270Z,1007.92
2018-07-31T10:48:45.271Z,1007.92
2018-07-31T10:49:45.274Z,1007.9
2018-07-31T10:50:45.390Z,1007.92
2018-07-31T10:51:45.277Z,1007.94
2018-07-31T10:52:45.276Z,1007.96
2018-07-31T10:53:45.276Z,1007.98
2018-07-31T10:54:45.279Z,1007.98
2018-07-31T10:55:45.279Z,1007.96
2018-07-31T10:56:45.279Z,1008.01
2018-07-31T10:57:45.282Z,1007.98
2018-07-31T10:58:45.318Z,1007.82
2018-07-31T10:59:45.350Z,1008.01
2018-07-31T11:00:45.289Z,1007.99
2018-07-31T11:01:45.289Z,1008.03
2018-07-31T11:02:45.354Z,1008
2018-07-31T11:03:45.305Z,1007.98
2018-07-31T11:04:45.299Z,1008.04
2018-07-31T11:05:45.300Z,1007.99
2018-07-31T11:06:45.304Z,1008.05
2018-07-31T11:07:45.310Z,1008.04
2018-07-31T11:08:45.314Z,1008.08
2018-07-31T11:09:45.323Z,1008.07
2018-07-31T11:10:45.327Z,1008
2018-07-31T11:11:45.326Z,1007.98
2018-07-31T11:12:45.334Z,1008.03
2018-07-31T11:13:45.339Z,1008.05
2018-07-31T11:14:45.344Z,1007.98
2018-07-31T11:15:45.347Z,1008.02
2018-07-31T11:16:45.351Z,1008.11
2018-07-31T11:17:45.358Z,1008.07
2018-07-31T11:18:45.364Z,1008.04
2018-07-31T11:19:45.369Z,1008.08
2018-07-31T11:20:45.376Z,1008.05
2018-07-31T11:21:45.382Z,1008.04
2018-07-31T11:22:45.389Z,1008.05
2018-07-31T11:23:45.393Z,1008.03
2018-07-31T11:24:45.400Z,1008.05
2018-07-31T11:25:45.409Z,1008.05
2018-07-31T11:26:45.411Z,1008.1
2018-07-31T11:27:45.428Z,1008.12
2018-07-31T11:28:45.426Z,1008.07
2018-07-31T11:29:45.432Z,1008.16
2018-07-31T11:30:45.443Z,1008.17
2018-07-31T11:31:45.450Z,1008.16
2018-07-31T11:32:45.454Z,1008.12
2018-07-31T11:33:45.459Z,1008.12
2018-07-31T11:34:45.469Z,1008.09
2018-07-31T11:35:45.480Z,1008.15
2018-07-31T11:36:45.481Z,1008.18
2018-07-31T11:37:45.492Z,1008.19
2018-07-31T11:38:45.493Z,1008.18
2018-07-31T11:39:45.502Z,1008.12
2018-07-31T11:40:45.513Z,1008.2
2018-07-31T11:41:45.516Z,1008.16
2018-07-31T11:42:45.522Z,1008.2
2018-07-31T11:43:45.530Z,1008.12
2018-07-31T11:44:45.537Z,1008.09
2018-07-31T11:45:45.544Z,1008.16
2018-07-31T11:46:45.550Z,1008.15
2018-07-31T11:47:45.557Z,1008.21
2018-07-31T11:48:45.612Z,1008.15
2018-07-31T11:49:45.636Z,1008.23
2018-07-31T11:50:45.579Z,1008.2
2018-07-31T11:51:45.584Z,1008.19
2018-07-31T11:52:45.591Z,1008.18
2018-07-31T11:53:45.598Z,1008.17
2018-07-31T11:54:45.607Z,1008.16
2018-07-31T11:55:45.615Z,1008.21
2018-07-31T11:56:45.618Z,1008.17
2018-07-31T11:57:45.627Z,1008.18
2018-07-31T11:58:45.635Z,1008.1
2018-07-31T11:59:45.681Z,1008.13
2018-07-31T12:00:45.645Z,1008.12
2018-07-31T12:01:45.717Z,1008.2
2018-07-31T12:02:45.661Z,1008.27
2018-07-31T12:03:45.670Z,1008.33
2018-07-31T12:04:45.719Z,1008.23
2018-07-31T12:05:45.712Z,1008.18
2018-07-31T12:06:45.689Z,1008.19
2018-07-31T12:07:45.698Z,1008.14
2018-07-31T12:08:45.728Z,1008.16